sensor_id;sensor_type;location;lat;lon;timestamp;pressure;altitude;pressure_sealevel;temperature
51547;BMP180;37542;50.164;9.086;2022-07-29T00:00:25;100516.00;;;26.90
51547;BMP180;37542;50.164;9.086;2022-07-29T00:04:07;100516.00;;;26.90
51547;BMP180;37542;50.164;9.086;2022-07-29T00:07:48;100515.00;;;26.90
51547;BMP180;37542;50.164;9.086;2022-07-29T00:11:28;100509.00;;;26.90
51547;BMP180;37542;50.164;9.086;2022-07-29T00:15:09;100485.00;;;26.90
51547;BMP180;37542;50.164;9.086;2022-07-29T00:18:50;100503.00;;;26.90
51547;BMP180;37542;50.164;9.086;2022-07-29T00:22:31;100500.00;;;26.90
51547;BMP180;37542;50.164;9.086;2022-07-29T00:26:11;100511.00;;;26.90
51547;BMP180;37542;50.164;9.086;2022-07-29T00:29:52;100508.00;;;26.90
51547;BMP180;37542;50.164;9.086;2022-07-29T00:33:33;100518.00;;;27.00
51547;BMP180;37542;50.164;9.086;2022-07-29T00:37:14;100517.00;;;27.00
51547;BMP180;37542;50.164;9.086;2022-07-29T00:40:55;100515.00;;;27.00
51547;BMP180;37542;50.164;9.086;2022-07-29T00:44:40;100517.00;;;27.10
51547;BMP180;37542;50.164;9.086;2022-07-29T00:48:21;100528.00;;;27.10
51547;BMP180;37542;50.164;9.086;2022-07-29T00:52:06;100526.00;;;27.10
51547;BMP180;37542;50.164;9.086;2022-07-29T00:55:47;100526.00;;;27.10
51547;BMP180;37542;50.164;9.086;2022-07-29T00:59:28;100531.00;;;27.00
51547;BMP180;37542;50.164;9.086;2022-07-29T01:03:09;100540.00;;;27.00
51547;BMP180;37542;50.164;9.086;2022-07-29T01:06:51;100534.00;;;27.00
51547;BMP180;37542;50.164;9.086;2022-07-29T01:10:33;100548.00;;;27.00
51547;BMP180;37542;50.164;9.086;2022-07-29T01:14:17;100554.00;;;26.90
51547;BMP180;37542;50.164;9.086;2022-07-29T01:18:11;100545.00;;;26.90
51547;BMP180;37542;50.164;9.086;2022-07-29T01:21:59;100562.00;;;26.90
51547;BMP180;37542;50.164;9.086;2022-07-29T01:29:39;100566.00;;;26.80
51547;BMP180;37542;50.164;9.086;2022-07-29T01:33:25;100558.00;;;26.50
51547;BMP180;37542;50.164;9.086;2022-07-29T01:38:19;100569.00;;;26.70
51547;BMP180;37542;50.164;9.086;2022-07-29T01:42:35;100564.00;;;26.60
51547;BMP180;37542;50.164;9.086;2022-07-29T01:46:27;100553.00;;;26.50
51547;BMP180;37542;50.164;9.086;2022-07-29T01:50:13;100542.00;;;26.50
51547;BMP180;37542;50.164;9.086;2022-07-29T01:54:06;100546.00;;;26.40
51547;BMP180;37542;50.164;9.086;2022-07-29T01:57:49;100539.00;;;26.40
51547;BMP180;37542;50.164;9.086;2022-07-29T02:01:32;100552.00;;;26.50
51547;BMP180;37542;50.164;9.086;2022-07-29T02:05:17;100542.00;;;26.40
51547;BMP180;37542;50.164;9.086;2022-07-29T02:09:00;100545.00;;;26.30
51547;BMP180;37542;50.164;9.086;2022-07-29T02:12:44;100534.00;;;26.40
51547;BMP180;37542;50.164;9.086;2022-07-29T02:16:29;100536.00;;;26.40
51547;BMP180;37542;50.164;9.086;2022-07-29T02:20:12;100518.00;;;26.30
51547;BMP180;37542;50.164;9.086;2022-07-29T02:23:54;100534.00;;;26.30
51547;BMP180;37542;50.164;9.086;2022-07-29T02:27:38;100539.00;;;26.20
51547;BMP180;37542;50.164;9.086;2022-07-29T02:31:24;100540.00;;;26.20
51547;BMP180;37542;50.164;9.086;2022-07-29T02:35:08;100539.00;;;26.20
51547;BMP180;37542;50.164;9.086;2022-07-29T02:38:51;100534.00;;;26.10
51547;BMP180;37542;50.164;9.086;2022-07-29T02:42:35;100539.00;;;26.10
51547;BMP180;37542;50.164;9.086;2022-07-29T02:46:31;100530.00;;;26.00
51547;BMP180;37542;50.164;9.086;2022-07-29T02:50:20;100533.00;;;26.00
51547;BMP180;37542;50.164;9.086;2022-07-29T02:54:07;100520.00;;;26.00
51547;BMP180;37542;50.164;9.086;2022-07-29T02:58:02;100520.00;;;25.90
51547;BMP180;37542;50.164;9.086;2022-07-29T03:01:43;100521.00;;;25.90
51547;BMP180;37542;50.164;9.086;2022-07-29T03:05:25;100521.00;;;25.80
51547;BMP180;37542;50.164;9.086;2022-07-29T03:09:07;100521.00;;;25.80
51547;BMP180;37542;50.164;9.086;2022-07-29T03:12:48;100511.00;;;25.70
51547;BMP180;37542;50.164;9.086;2022-07-29T03:16:30;100516.00;;;25.60
51547;BMP180;37542;50.164;9.086;2022-07-29T03:20:12;100505.00;;;25.50
51547;BMP180;37542;50.164;9.086;2022-07-29T03:23:53;100506.00;;;25.50
51547;BMP180;37542;50.164;9.086;2022-07-29T03:27:34;100508.00;;;25.40
51547;BMP180;37542;50.164;9.086;2022-07-29T03:31:15;100512.00;;;25.40
51547;BMP180;37542;50.164;9.086;2022-07-29T03:34:55;100498.00;;;25.30
51547;BMP180;37542;50.164;9.086;2022-07-29T03:38:37;100492.00;;;25.20
51547;BMP180;37542;50.164;9.086;2022-07-29T03:42:21;100511.00;;;25.20
51547;BMP180;37542;50.164;9.086;2022-07-29T03:46:06;100515.00;;;25.10
51547;BMP180;37542;50.164;9.086;2022-07-29T03:49:52;100496.00;;;25.00
51547;BMP180;37542;50.164;9.086;2022-07-29T03:53:34;100491.00;;;24.90
51547;BMP180;37542;50.164;9.086;2022-07-29T03:57:20;100484.00;;;24.80
51547;BMP180;37542;50.164;9.086;2022-07-29T04:01:04;100499.00;;;24.80
51547;BMP180;37542;50.164;9.086;2022-07-29T04:04:45;100505.00;;;24.80
51547;BMP180;37542;50.164;9.086;2022-07-29T04:08:26;100498.00;;;24.70
51547;BMP180;37542;50.164;9.086;2022-07-29T04:12:07;100494.00;;;24.70
51547;BMP180;37542;50.164;9.086;2022-07-29T04:15:48;100507.00;;;24.70
51547;BMP180;37542;50.164;9.086;2022-07-29T04:19:29;100512.00;;;24.70
51547;BMP180;37542;50.164;9.086;2022-07-29T04:23:10;100508.00;;;24.70
51547;BMP180;37542;50.164;9.086;2022-07-29T04:26:51;100504.00;;;24.80
51547;BMP180;37542;50.164;9.086;2022-07-29T04:30:34;100501.00;;;24.80
51547;BMP180;37542;50.164;9.086;2022-07-29T04:34:15;100507.00;;;24.90
51547;BMP180;37542;50.164;9.086;2022-07-29T04:37:56;100523.00;;;25.00
51547;BMP180;37542;50.164;9.086;2022-07-29T04:41:37;100498.00;;;25.00
51547;BMP180;37542;50.164;9.086;2022-07-29T04:45:18;100500.00;;;25.00
51547;BMP180;37542;50.164;9.086;2022-07-29T04:48:58;100509.00;;;25.10
51547;BMP180;37542;50.164;9.086;2022-07-29T04:52:39;100509.00;;;25.10
51547;BMP180;37542;50.164;9.086;2022-07-29T04:56:20;100500.00;;;25.10
51547;BMP180;37542;50.164;9.086;2022-07-29T05:00:01;100500.00;;;25.20
51547;BMP180;37542;50.164;9.086;2022-07-29T05:03:42;100507.00;;;25.20
51547;BMP180;37542;50.164;9.086;2022-07-29T05:07:23;100507.00;;;25.20
51547;BMP180;37542;50.164;9.086;2022-07-29T05:11:04;100509.00;;;25.20
51547;BMP180;37542;50.164;9.086;2022-07-29T05:14:45;100500.00;;;25.20
51547;BMP180;37542;50.164;9.086;2022-07-29T05:18:26;100515.00;;;25.20
51547;BMP180;37542;50.164;9.086;2022-07-29T05:22:07;100505.00;;;25.10
51547;BMP180;37542;50.164;9.086;2022-07-29T05:25:47;100513.00;;;25.10
51547;BMP180;37542;50.164;9.086;2022-07-29T05:29:28;100500.00;;;25.00
51547;BMP180;37542;50.164;9.086;2022-07-29T05:33:09;100502.00;;;25.00
51547;BMP180;37542;50.164;9.086;2022-07-29T05:36:50;100510.00;;;24.90
51547;BMP180;37542;50.164;9.086;2022-07-29T05:40:31;100493.00;;;24.90
51547;BMP180;37542;50.164;9.086;2022-07-29T05:44:12;100500.00;;;24.90
51547;BMP180;37542;50.164;9.086;2022-07-29T05:47:54;100494.00;;;24.90
51547;BMP180;37542;50.164;9.086;2022-07-29T05:51:35;100504.00;;;24.90
51547;BMP180;37542;50.164;9.086;2022-07-29T05:55:16;100498.00;;;24.90
51547;BMP180;37542;50.164;9.086;2022-07-29T05:58:57;100504.00;;;24.90
51547;BMP180;37542;50.164;9.086;2022-07-29T06:02:37;100512.00;;;24.80
51547;BMP180;37542;50.164;9.086;2022-07-29T06:06:18;100504.00;;;25.00
51547;BMP180;37542;50.164;9.086;2022-07-29T06:09:59;100512.00;;;25.00
51547;BMP180;37542;50.164;9.086;2022-07-29T06:13:40;100518.00;;;25.10
51547;BMP180;37542;50.164;9.086;2022-07-29T06:17:20;100529.00;;;25.30
51547;BMP180;37542;50.164;9.086;2022-07-29T06:21:07;100530.00;;;25.50
51547;BMP180;37542;50.164;9.086;2022-07-29T06:24:49;100529.00;;;25.70
51547;BMP180;37542;50.164;9.086;2022-07-29T06:28:30;100536.00;;;25.90
51547;BMP180;37542;50.164;9.086;2022-07-29T06:32:11;100526.00;;;26.10
51547;BMP180;37542;50.164;9.086;2022-07-29T06:35:52;100529.00;;;26.30
51547;BMP180;37542;50.164;9.086;2022-07-29T06:39:35;100532.00;;;26.40
51547;BMP180;37542;50.164;9.086;2022-07-29T06:43:16;100532.00;;;26.50
51547;BMP180;37542;50.164;9.086;2022-07-29T06:46:57;100536.00;;;26.60
51547;BMP180;37542;50.164;9.086;2022-07-29T06:50:38;100528.00;;;26.70
51547;BMP180;37542;50.164;9.086;2022-07-29T06:54:20;100529.00;;;26.80
51547;BMP180;37542;50.164;9.086;2022-07-29T06:58:02;100527.00;;;26.90
51547;BMP180;37542;50.164;9.086;2022-07-29T07:01:43;100534.00;;;26.90
51547;BMP180;37542;50.164;9.086;2022-07-29T07:05:24;100523.00;;;27.00
51547;BMP180;37542;50.164;9.086;2022-07-29T07:09:05;100523.00;;;27.00
51547;BMP180;37542;50.164;9.086;2022-07-29T07:12:45;100522.00;;;27.10
51547;BMP180;37542;50.164;9.086;2022-07-29T07:16:26;100532.00;;;27.20
51547;BMP180;37542;50.164;9.086;2022-07-29T07:20:07;100529.00;;;27.30
51547;BMP180;37542;50.164;9.086;2022-07-29T07:23:48;100540.00;;;27.40
51547;BMP180;37542;50.164;9.086;2022-07-29T07:27:29;100533.00;;;27.50
51547;BMP180;37542;50.164;9.086;2022-07-29T07:31:10;100546.00;;;27.60
51547;BMP180;37542;50.164;9.086;2022-07-29T07:34:51;100545.00;;;27.60
51547;BMP180;37542;50.164;9.086;2022-07-29T07:38:33;100527.00;;;27.70
51547;BMP180;37542;50.164;9.086;2022-07-29T07:42:14;100536.00;;;27.80
51547;BMP180;37542;50.164;9.086;2022-07-29T07:45:55;100532.00;;;27.90
51547;BMP180;37542;50.164;9.086;2022-07-29T07:49:35;100526.00;;;27.90
51547;BMP180;37542;50.164;9.086;2022-07-29T07:53:16;100535.00;;;27.90
51547;BMP180;37542;50.164;9.086;2022-07-29T07:56:57;100534.00;;;28.00
51547;BMP180;37542;50.164;9.086;2022-07-29T08:00:38;100533.00;;;28.10
51547;BMP180;37542;50.164;9.086;2022-07-29T08:04:19;100526.00;;;28.20
51547;BMP180;37542;50.164;9.086;2022-07-29T08:07:59;100528.00;;;28.30
51547;BMP180;37542;50.164;9.086;2022-07-29T08:11:40;100539.00;;;28.50
51547;BMP180;37542;50.164;9.086;2022-07-29T08:15:21;100554.00;;;28.50
51547;BMP180;37542;50.164;9.086;2022-07-29T08:19:02;100532.00;;;28.70
51547;BMP180;37542;50.164;9.086;2022-07-29T08:22:42;100541.00;;;28.80
51547;BMP180;37542;50.164;9.086;2022-07-29T08:26:23;100550.00;;;28.90
51547;BMP180;37542;50.164;9.086;2022-07-29T08:30:05;100547.00;;;29.10
51547;BMP180;37542;50.164;9.086;2022-07-29T08:33:46;100538.00;;;29.20
51547;BMP180;37542;50.164;9.086;2022-07-29T08:37:27;100545.00;;;29.20
51547;BMP180;37542;50.164;9.086;2022-07-29T08:41:10;100527.00;;;29.40
51547;BMP180;37542;50.164;9.086;2022-07-29T08:44:51;100529.00;;;29.50
51547;BMP180;37542;50.164;9.086;2022-07-29T08:48:33;100531.00;;;29.60
51547;BMP180;37542;50.164;9.086;2022-07-29T08:52:16;100548.00;;;29.80
51547;BMP180;37542;50.164;9.086;2022-07-29T08:55:58;100546.00;;;29.80
51547;BMP180;37542;50.164;9.086;2022-07-29T08:59:42;100540.00;;;30.00
51547;BMP180;37542;50.164;9.086;2022-07-29T09:03:29;100510.00;;;30.10
51547;BMP180;37542;50.164;9.086;2022-07-29T09:07:16;100529.00;;;30.20
51547;BMP180;37542;50.164;9.086;2022-07-29T09:10:57;100537.00;;;30.40
51547;BMP180;37542;50.164;9.086;2022-07-29T09:14:39;100528.00;;;30.60
51547;BMP180;37542;50.164;9.086;2022-07-29T09:18:41;100529.00;;;30.60
51547;BMP180;37542;50.164;9.086;2022-07-29T09:22:29;100534.00;;;30.70
51547;BMP180;37542;50.164;9.086;2022-07-29T09:26:13;100521.00;;;30.90
51547;BMP180;37542;50.164;9.086;2022-07-29T09:30:10;100514.00;;;31.00
51547;BMP180;37542;50.164;9.086;2022-07-29T09:33:58;100509.00;;;31.10
51547;BMP180;37542;50.164;9.086;2022-07-29T09:37:40;100520.00;;;31.30
51547;BMP180;37542;50.164;9.086;2022-07-29T09:41:21;100511.00;;;31.60
51547;BMP180;37542;50.164;9.086;2022-07-29T09:45:02;100497.00;;;31.90
51547;BMP180;37542;50.164;9.086;2022-07-29T09:48:43;100492.00;;;32.10
51547;BMP180;37542;50.164;9.086;2022-07-29T09:52:28;100497.00;;;32.40
51547;BMP180;37542;50.164;9.086;2022-07-29T09:56:09;100504.00;;;32.70
51547;BMP180;37542;50.164;9.086;2022-07-29T10:00:04;100498.00;;;33.10
51547;BMP180;37542;50.164;9.086;2022-07-29T10:03:52;100508.00;;;33.60
51547;BMP180;37542;50.164;9.086;2022-07-29T10:07:46;100502.00;;;34.00
51547;BMP180;37542;50.164;9.086;2022-07-29T10:11:27;100492.00;;;34.30
51547;BMP180;37542;50.164;9.086;2022-07-29T10:15:08;100490.00;;;34.30
51547;BMP180;37542;50.164;9.086;2022-07-29T10:18:49;100480.00;;;34.40
51547;BMP180;37542;50.164;9.086;2022-07-29T10:22:31;100490.00;;;34.40
51547;BMP180;37542;50.164;9.086;2022-07-29T10:26:12;100496.00;;;34.50
51547;BMP180;37542;50.164;9.086;2022-07-29T10:29:54;100492.00;;;34.70
51547;BMP180;37542;50.164;9.086;2022-07-29T10:48:34;100483.00;;;35.10
51547;BMP180;37542;50.164;9.086;2022-07-29T10:58:19;100479.00;;;35.50
51547;BMP180;37542;50.164;9.086;2022-07-29T11:03:00;100473.00;;;35.80
51547;BMP180;37542;50.164;9.086;2022-07-29T11:07:12;100461.00;;;36.10
51547;BMP180;37542;50.164;9.086;2022-07-29T11:11:39;100425.00;;;36.40
51547;BMP180;37542;50.164;9.086;2022-07-29T11:15:56;100461.00;;;36.70
51547;BMP180;37542;50.164;9.086;2022-07-29T11:29:55;100458.00;;;36.90
51547;BMP180;37542;50.164;9.086;2022-07-29T11:33:36;100403.00;;;37.10
51547;BMP180;37542;50.164;9.086;2022-07-29T11:37:37;100405.00;;;37.40
51547;BMP180;37542;50.164;9.086;2022-07-29T11:41:38;100437.00;;;37.50
51547;BMP180;37542;50.164;9.086;2022-07-29T11:45:47;100461.00;;;37.80
51547;BMP180;37542;50.164;9.086;2022-07-29T11:49:33;100459.00;;;38.00
51547;BMP180;37542;50.164;9.086;2022-07-29T11:53:17;100453.00;;;38.10
51547;BMP180;37542;50.164;9.086;2022-07-29T11:57:15;100404.00;;;38.40
51547;BMP180;37542;50.164;9.086;2022-07-29T12:01:06;100394.00;;;38.60
51547;BMP180;37542;50.164;9.086;2022-07-29T12:04:57;100442.00;;;38.70
51547;BMP180;37542;50.164;9.086;2022-07-29T12:08:42;100413.00;;;38.90
51547;BMP180;37542;50.164;9.086;2022-07-29T12:12:26;100398.00;;;39.00
51547;BMP180;37542;50.164;9.086;2022-07-29T12:16:09;100389.00;;;38.90
51547;BMP180;37542;50.164;9.086;2022-07-29T12:19:54;100408.00;;;39.10
51547;BMP180;37542;50.164;9.086;2022-07-29T12:23:35;100410.00;;;39.20
51547;BMP180;37542;50.164;9.086;2022-07-29T12:27:17;100396.00;;;39.40
51547;BMP180;37542;50.164;9.086;2022-07-29T12:30:58;100406.00;;;39.70
51547;BMP180;37542;50.164;9.086;2022-07-29T12:34:39;100412.00;;;39.70
51547;BMP180;37542;50.164;9.086;2022-07-29T12:38:20;100410.00;;;39.70
51547;BMP180;37542;50.164;9.086;2022-07-29T12:42:14;100401.00;;;39.70
51547;BMP180;37542;50.164;9.086;2022-07-29T12:45:57;100408.00;;;39.90
51547;BMP180;37542;50.164;9.086;2022-07-29T12:49:38;100396.00;;;40.10
51547;BMP180;37542;50.164;9.086;2022-07-29T12:53:19;100384.00;;;40.20
51547;BMP180;37542;50.164;9.086;2022-07-29T12:57:00;100383.00;;;40.40
51547;BMP180;37542;50.164;9.086;2022-07-29T13:00:40;100369.00;;;40.60
51547;BMP180;37542;50.164;9.086;2022-07-29T13:04:33;100377.00;;;40.50
51547;BMP180;37542;50.164;9.086;2022-07-29T13:08:17;100375.00;;;40.50
51547;BMP180;37542;50.164;9.086;2022-07-29T13:12:07;100375.00;;;40.30
51547;BMP180;37542;50.164;9.086;2022-07-29T13:16:07;100378.00;;;40.10
51547;BMP180;37542;50.164;9.086;2022-07-29T13:20:04;100375.00;;;40.00
51547;BMP180;37542;50.164;9.086;2022-07-29T13:23:45;100371.00;;;39.90
51547;BMP180;37542;50.164;9.086;2022-07-29T13:27:30;100359.00;;;39.90
51547;BMP180;37542;50.164;9.086;2022-07-29T13:31:12;100357.00;;;40.00
51547;BMP180;37542;50.164;9.086;2022-07-29T13:34:57;100372.00;;;40.10
51547;BMP180;37542;50.164;9.086;2022-07-29T13:38:39;100371.00;;;39.90
51547;BMP180;37542;50.164;9.086;2022-07-29T13:42:19;100359.00;;;39.90
51547;BMP180;37542;50.164;9.086;2022-07-29T13:46:00;100357.00;;;39.90
51547;BMP180;37542;50.164;9.086;2022-07-29T13:49:42;100362.00;;;40.00
51547;BMP180;37542;50.164;9.086;2022-07-29T13:53:22;100359.00;;;39.90
51547;BMP180;37542;50.164;9.086;2022-07-29T13:57:04;100351.00;;;39.90
51547;BMP180;37542;50.164;9.086;2022-07-29T14:00:45;100347.00;;;39.90
51547;BMP180;37542;50.164;9.086;2022-07-29T14:04:27;100347.00;;;39.80
51547;BMP180;37542;50.164;9.086;2022-07-29T14:08:07;100339.00;;;39.80
51547;BMP180;37542;50.164;9.086;2022-07-29T14:11:48;100341.00;;;39.80
51547;BMP180;37542;50.164;9.086;2022-07-29T14:15:31;100339.00;;;39.90
51547;BMP180;37542;50.164;9.086;2022-07-29T14:19:12;100323.00;;;40.00
51547;BMP180;37542;50.164;9.086;2022-07-29T14:22:52;100331.00;;;40.10
51547;BMP180;37542;50.164;9.086;2022-07-29T14:26:33;100326.00;;;40.10
51547;BMP180;37542;50.164;9.086;2022-07-29T14:30:23;100341.00;;;40.10
51547;BMP180;37542;50.164;9.086;2022-07-29T14:34:04;100335.00;;;40.10
51547;BMP180;37542;50.164;9.086;2022-07-29T14:37:45;100326.00;;;40.00
51547;BMP180;37542;50.164;9.086;2022-07-29T14:41:28;100321.00;;;40.00
51547;BMP180;37542;50.164;9.086;2022-07-29T14:45:10;100339.00;;;39.90
51547;BMP180;37542;50.164;9.086;2022-07-29T14:48:50;100344.00;;;39.70
51547;BMP180;37542;50.164;9.086;2022-07-29T14:52:31;100340.00;;;39.50
51547;BMP180;37542;50.164;9.086;2022-07-29T14:56:12;100350.00;;;39.40
51547;BMP180;37542;50.164;9.086;2022-07-29T14:59:53;100342.00;;;39.30
51547;BMP180;37542;50.164;9.086;2022-07-29T15:03:34;100342.00;;;39.10
51547;BMP180;37542;50.164;9.086;2022-07-29T15:07:15;100362.00;;;38.90
51547;BMP180;37542;50.164;9.086;2022-07-29T15:10:56;100381.00;;;38.60
51547;BMP180;37542;50.164;9.086;2022-07-29T15:14:41;100392.00;;;38.30
51547;BMP180;37542;50.164;9.086;2022-07-29T15:18:22;100390.00;;;38.00
51547;BMP180;37542;50.164;9.086;2022-07-29T15:22:03;100401.00;;;37.70
51547;BMP180;37542;50.164;9.086;2022-07-29T15:25:45;100421.00;;;37.30
51547;BMP180;37542;50.164;9.086;2022-07-29T15:29:26;100431.00;;;36.80
51547;BMP180;37542;50.164;9.086;2022-07-29T15:33:08;100476.00;;;36.20
51547;BMP180;37542;50.164;9.086;2022-07-29T15:36:52;100515.00;;;35.60
51547;BMP180;37542;50.164;9.086;2022-07-29T15:40:33;100521.00;;;35.10
51547;BMP180;37542;50.164;9.086;2022-07-29T15:44:14;100511.00;;;34.60
51547;BMP180;37542;50.164;9.086;2022-07-29T15:47:54;100530.00;;;34.10
51547;BMP180;37542;50.164;9.086;2022-07-29T15:51:35;100534.00;;;33.60
51547;BMP180;37542;50.164;9.086;2022-07-29T15:55:16;100487.00;;;33.10
51547;BMP180;37542;50.164;9.086;2022-07-29T15:58:58;100497.00;;;32.60
51547;BMP180;37542;50.164;9.086;2022-07-29T16:02:39;100505.00;;;32.10
51547;BMP180;37542;50.164;9.086;2022-07-29T16:06:20;100519.00;;;31.70
51547;BMP180;37542;50.164;9.086;2022-07-29T16:10:01;100498.00;;;31.30
51547;BMP180;37542;50.164;9.086;2022-07-29T16:13:41;100494.00;;;31.10
51547;BMP180;37542;50.164;9.086;2022-07-29T16:17:22;100521.00;;;30.80
51547;BMP180;37542;50.164;9.086;2022-07-29T16:21:03;100531.00;;;30.60
51547;BMP180;37542;50.164;9.086;2022-07-29T16:24:43;100529.00;;;30.30
51547;BMP180;37542;50.164;9.086;2022-07-29T16:28:26;100523.00;;;30.20
51547;BMP180;37542;50.164;9.086;2022-07-29T16:32:07;100529.00;;;30.10
51547;BMP180;37542;50.164;9.086;2022-07-29T16:35:51;100522.00;;;30.10
51547;BMP180;37542;50.164;9.086;2022-07-29T16:39:31;100524.00;;;30.00
51547;BMP180;37542;50.164;9.086;2022-07-29T16:43:12;100515.00;;;30.10
51547;BMP180;37542;50.164;9.086;2022-07-29T16:46:53;100500.00;;;30.10
51547;BMP180;37542;50.164;9.086;2022-07-29T16:50:34;100502.00;;;30.20
51547;BMP180;37542;50.164;9.086;2022-07-29T16:54:14;100498.00;;;30.10
51547;BMP180;37542;50.164;9.086;2022-07-29T16:57:55;100495.00;;;30.20
51547;BMP180;37542;50.164;9.086;2022-07-29T17:01:36;100490.00;;;30.20
51547;BMP180;37542;50.164;9.086;2022-07-29T17:05:17;100490.00;;;30.20
51547;BMP180;37542;50.164;9.086;2022-07-29T17:08:58;100499.00;;;30.20
51547;BMP180;37542;50.164;9.086;2022-07-29T17:12:40;100497.00;;;30.20
51547;BMP180;37542;50.164;9.086;2022-07-29T17:16:20;100485.00;;;30.20
51547;BMP180;37542;50.164;9.086;2022-07-29T17:20:05;100496.00;;;30.20
51547;BMP180;37542;50.164;9.086;2022-07-29T17:23:47;100493.00;;;30.20
51547;BMP180;37542;50.164;9.086;2022-07-29T17:27:27;100495.00;;;30.30
51547;BMP180;37542;50.164;9.086;2022-07-29T17:31:08;100508.00;;;30.40
51547;BMP180;37542;50.164;9.086;2022-07-29T17:34:49;100519.00;;;30.40
51547;BMP180;37542;50.164;9.086;2022-07-29T17:38:30;100523.00;;;30.40
51547;BMP180;37542;50.164;9.086;2022-07-29T17:42:14;100533.00;;;30.50
51547;BMP180;37542;50.164;9.086;2022-07-29T17:45:54;100553.00;;;30.50
51547;BMP180;37542;50.164;9.086;2022-07-29T17:49:35;100565.00;;;30.50
51547;BMP180;37542;50.164;9.086;2022-07-29T17:53:16;100568.00;;;30.60
51547;BMP180;37542;50.164;9.086;2022-07-29T17:56:57;100559.00;;;30.70
51547;BMP180;37542;50.164;9.086;2022-07-29T18:00:38;100559.00;;;30.70
51547;BMP180;37542;50.164;9.086;2022-07-29T18:04:19;100561.00;;;30.80
51547;BMP180;37542;50.164;9.086;2022-07-29T18:08:00;100563.00;;;30.80
51547;BMP180;37542;50.164;9.086;2022-07-29T18:11:41;100557.00;;;30.70
51547;BMP180;37542;50.164;9.086;2022-07-29T18:15:22;100562.00;;;30.60
51547;BMP180;37542;50.164;9.086;2022-07-29T18:19:03;100580.00;;;30.50
51547;BMP180;37542;50.164;9.086;2022-07-29T18:22:44;100578.00;;;30.40
51547;BMP180;37542;50.164;9.086;2022-07-29T18:26:25;100580.00;;;30.30
51547;BMP180;37542;50.164;9.086;2022-07-29T18:30:06;100601.00;;;30.20
51547;BMP180;37542;50.164;9.086;2022-07-29T18:33:47;100607.00;;;30.20
51547;BMP180;37542;50.164;9.086;2022-07-29T18:37:28;100607.00;;;30.10
51547;BMP180;37542;50.164;9.086;2022-07-29T18:41:09;100623.00;;;30.00
51547;BMP180;37542;50.164;9.086;2022-07-29T18:44:50;100627.00;;;29.90
51547;BMP180;37542;50.164;9.086;2022-07-29T18:48:32;100667.00;;;29.80
51547;BMP180;37542;50.164;9.086;2022-07-29T18:52:13;100670.00;;;29.80
51547;BMP180;37542;50.164;9.086;2022-07-29T18:55:54;100651.00;;;29.60
51547;BMP180;37542;50.164;9.086;2022-07-29T18:59:37;100663.00;;;29.50
51547;BMP180;37542;50.164;9.086;2022-07-29T19:03:17;100652.00;;;29.40
51547;BMP180;37542;50.164;9.086;2022-07-29T19:06:58;100657.00;;;29.30
51547;BMP180;37542;50.164;9.086;2022-07-29T19:10:42;100667.00;;;29.10
51547;BMP180;37542;50.164;9.086;2022-07-29T19:14:23;100651.00;;;28.90
51547;BMP180;37542;50.164;9.086;2022-07-29T19:18:03;100653.00;;;28.80
51547;BMP180;37542;50.164;9.086;2022-07-29T19:21:44;100646.00;;;28.70
51547;BMP180;37542;50.164;9.086;2022-07-29T19:25:26;100643.00;;;28.50
51547;BMP180;37542;50.164;9.086;2022-07-29T19:29:07;100660.00;;;28.40
51547;BMP180;37542;50.164;9.086;2022-07-29T19:32:47;100655.00;;;28.30
51547;BMP180;37542;50.164;9.086;2022-07-29T19:36:28;100666.00;;;28.20
51547;BMP180;37542;50.164;9.086;2022-07-29T19:40:10;100677.00;;;28.20
51547;BMP180;37542;50.164;9.086;2022-07-29T19:43:52;100687.00;;;28.10
51547;BMP180;37542;50.164;9.086;2022-07-29T19:47:33;100691.00;;;28.00
51547;BMP180;37542;50.164;9.086;2022-07-29T19:51:14;100694.00;;;28.00
51547;BMP180;37542;50.164;9.086;2022-07-29T19:54:56;100699.00;;;27.90
51547;BMP180;37542;50.164;9.086;2022-07-29T19:58:36;100714.00;;;27.80
51547;BMP180;37542;50.164;9.086;2022-07-29T20:02:18;100717.00;;;27.70
51547;BMP180;37542;50.164;9.086;2022-07-29T20:05:59;100717.00;;;27.70
51547;BMP180;37542;50.164;9.086;2022-07-29T20:09:41;100708.00;;;27.60
51547;BMP180;37542;50.164;9.086;2022-07-29T20:13:21;100707.00;;;27.40
51547;BMP180;37542;50.164;9.086;2022-07-29T20:17:03;100732.00;;;27.30
51547;BMP180;37542;50.164;9.086;2022-07-29T20:20:44;100733.00;;;27.30
51547;BMP180;37542;50.164;9.086;2022-07-29T20:24:25;100741.00;;;27.20
51547;BMP180;37542;50.164;9.086;2022-07-29T20:28:05;100746.00;;;27.20
51547;BMP180;37542;50.164;9.086;2022-07-29T20:31:47;100735.00;;;27.10
51547;BMP180;37542;50.164;9.086;2022-07-29T20:35:27;100737.00;;;27.10
51547;BMP180;37542;50.164;9.086;2022-07-29T20:39:09;100743.00;;;27.00
51547;BMP180;37542;50.164;9.086;2022-07-29T20:42:50;100740.00;;;27.00
51547;BMP180;37542;50.164;9.086;2022-07-29T20:46:31;100736.00;;;27.00
51547;BMP180;37542;50.164;9.086;2022-07-29T20:50:13;100738.00;;;27.00
51547;BMP180;37542;50.164;9.086;2022-07-29T20:53:53;100739.00;;;26.90
51547;BMP180;37542;50.164;9.086;2022-07-29T20:57:34;100727.00;;;26.90
51547;BMP180;37542;50.164;9.086;2022-07-29T21:01:15;100707.00;;;26.90
51547;BMP180;37542;50.164;9.086;2022-07-29T21:04:56;100711.00;;;26.80
51547;BMP180;37542;50.164;9.086;2022-07-29T21:08:37;100713.00;;;26.80
51547;BMP180;37542;50.164;9.086;2022-07-29T21:12:18;100722.00;;;26.70
51547;BMP180;37542;50.164;9.086;2022-07-29T21:15:59;100723.00;;;26.70
51547;BMP180;37542;50.164;9.086;2022-07-29T21:19:41;100744.00;;;26.60
51547;BMP180;37542;50.164;9.086;2022-07-29T21:23:23;100745.00;;;26.60
51547;BMP180;37542;50.164;9.086;2022-07-29T21:27:04;100734.00;;;26.50
51547;BMP180;37542;50.164;9.086;2022-07-29T21:31:14;100751.00;;;26.40
51547;BMP180;37542;50.164;9.086;2022-07-29T21:34:56;100752.00;;;26.30
51547;BMP180;37542;50.164;9.086;2022-07-29T21:38:37;100730.00;;;26.20
51547;BMP180;37542;50.164;9.086;2022-07-29T21:42:18;100737.00;;;26.10